Weather reports worldwide

Advertisment
Mannheim City Airport, Germany (10730): temperature & dewpoint: 11.08.2018 01:00:00 - 17.08.2018 01:00:00 (CEST)Mannheim City Airport, Germany (10730): wind speed: 11.08.2018 01:00:00 - 17.08.2018 01:00:00 (CEST)Mannheim City Airport, Germany (10730): wind direction: 11.08.2018 01:00:00 - 17.08.2018 01:00:00 (CEST)Mannheim City Airport, Germany (10730): visibility: 11.08.2018 01:00:00 - 17.08.2018 01:00:00 (CEST)
Date & Time tt [°C] td [°C] ff [km/h] ff [kn] dd vv [km]
17.08.2018 01:00:00 - - - - - -
17.08.2018 00:00:00 - - - - - -
16.08.2018 23:00:00 - - - - - -
16.08.2018 22:00:00 - - - - - -
16.08.2018 21:00:00 - - - - - -
16.08.2018 20:00:00 30,0 10,0 4 2 - 10
16.08.2018 19:00:00 31,0 11,0 8 4 S 10
16.08.2018 18:00:00 30,0 11,0 8 4 SSE 10
16.08.2018 17:00:00 31,0 11,0 9 5 WSW 10
16.08.2018 16:00:00 30,0 11,0 9 5 S 10
16.08.2018 15:00:00 30,0 12,0 9 5 S 10
16.08.2018 14:00:00 29,0 13,0 9 5 - 10
16.08.2018 13:00:00 27,0 12,0 5 3 - 10
16.08.2018 12:00:00 25,0 12,0 5 3 - 10
16.08.2018 11:00:00 24,0 13,0 4 2 - 10
16.08.2018 10:00:00 21,0 13,0 4 2 - 10
16.08.2018 09:00:00 19,0 14,0 2 1 - 10
16.08.2018 08:00:00 - - - - - -
16.08.2018 07:00:00 15,0 15,0 4 2 - 10
16.08.2018 06:00:00 15,0 14,0 4 2 - 10
16.08.2018 05:00:00 - - - - - -
16.08.2018 04:00:00 - - - - - -
16.08.2018 03:00:00 - - - - - -
16.08.2018 02:00:00 - - - - - -
16.08.2018 01:00:00 - - - - - -
16.08.2018 00:00:00 - - - - - -
15.08.2018 23:00:00 - - - - - -
15.08.2018 22:00:00 - - - - - -
15.08.2018 21:00:00 23,0 12,0 8 4 NNW 10
15.08.2018 20:00:00 25,0 12,0 8 4 WNW 10
15.08.2018 19:00:00 25,0 12,0 9 5 NNW 10
15.08.2018 18:00:00 27,0 12,0 8 4 WNW 10
15.08.2018 17:00:00 26,0 13,0 13 7 WNW 10
15.08.2018 16:00:00 25,0 12,0 8 4 WNW 10
15.08.2018 15:00:00 24,0 12,0 9 5 W 10
15.08.2018 14:00:00 23,0 13,0 5 3 - 10
15.08.2018 13:00:00 23,0 13,0 5 3 - 10
15.08.2018 12:00:00 22,0 14,0 5 3 - 10
15.08.2018 11:00:00 21,0 15,0 2 1 - 10
15.08.2018 10:00:00 19,0 15,0 4 2 - 10
15.08.2018 09:00:00 18,0 15,0 8 4 SSE 10
15.08.2018 08:00:00 17,0 16,0 8 4 SE 10
15.08.2018 07:00:00 16,0 16,0 5 3 SE 10
15.08.2018 06:00:00 16,0 16,0 5 3 SE 10
15.08.2018 05:00:00 - - - - - -
15.08.2018 04:00:00 - - - - - -
15.08.2018 03:00:00 - - - - - -
15.08.2018 02:00:00 - - - - - -
15.08.2018 01:00:00 - - - - - -
15.08.2018 00:00:00 - - - - - -
14.08.2018 23:00:00 - - - - - -
14.08.2018 22:00:00 - - - - - -
14.08.2018 21:00:00 23,0 13,0 15 8 W 10
14.08.2018 20:00:00 24,0 12,0 15 8 W 10
14.08.2018 19:00:00 26,0 12,0 18 10 WNW 10
14.08.2018 18:00:00 26,0 12,0 18 10 W 10
14.08.2018 17:00:00 24,0 14,0 16 9 W 10
14.08.2018 16:00:00 24,0 13,0 18 10 WNW 10
14.08.2018 15:00:00 24,0 13,0 18 10 WNW 10
14.08.2018 14:00:00 25,0 12,0 13 7 W 10
14.08.2018 13:00:00 24,0 13,0 18 10 WNW 10
14.08.2018 12:00:00 22,0 13,0 15 8 WSW 10
14.08.2018 11:00:00 21,0 13,0 13 7 W 10
14.08.2018 10:00:00 21,0 14,0 5 3 - 10
14.08.2018 09:00:00 19,0 14,0 9 5 SW 10
14.08.2018 08:00:00 18,0 14,0 11 6 SW 10
14.08.2018 07:00:00 17,0 14,0 8 4 SW 10
14.08.2018 06:00:00 17,0 14,0 11 6 WSW 10
14.08.2018 05:00:00 - - - - - -
14.08.2018 04:00:00 - - - - - -
14.08.2018 03:00:00 - - - - - -
14.08.2018 02:00:00 - - - - - -
14.08.2018 01:00:00 - - - - - -
14.08.2018 00:00:00 - - - - - -
13.08.2018 23:00:00 - - - - - -
13.08.2018 22:00:00 - - - - - -
13.08.2018 21:00:00 - - - - - -
13.08.2018 20:00:00 22,0 16,0 9 5 SW 10
13.08.2018 19:00:00 23,0 18,0 8 4 S 10
13.08.2018 18:00:00 20,0 20,0 15 8 SSW 10
13.08.2018 17:00:00 24,0 17,0 11 6 SSW 10
13.08.2018 16:00:00 23,0 17,0 15 8 S 10
13.08.2018 15:00:00 21,0 20,0 11 6 SSW 10
13.08.2018 14:00:00 20,0 20,0 9 5 S 10
13.08.2018 13:00:00 19,0 19,0 11 6 SSE 10
13.08.2018 12:00:00 20,0 19,0 13 7 S 10
13.08.2018 11:00:00 20,0 18,0 8 4 SSE 10
13.08.2018 10:00:00 21,0 15,0 5 3 - 10
13.08.2018 09:00:00 19,0 13,0 8 4 SW 10
13.08.2018 08:00:00 20,0 10,0 9 5 SSW 10
13.08.2018 07:00:00 19,0 10,0 5 3 - 10
13.08.2018 06:00:00 17,0 10,0 5 3 - 10
13.08.2018 05:00:00 - - - - - -
13.08.2018 04:00:00 - - - - - -
13.08.2018 03:00:00 - - - - - -
13.08.2018 02:00:00 - - - - - -
13.08.2018 01:00:00 - - - - - -
13.08.2018 00:00:00 - - - - - -
12.08.2018 23:00:00 - - - - - -
12.08.2018 22:00:00 - - - - - -
12.08.2018 21:00:00 - - - - - -
12.08.2018 20:00:00 29,0 6,0 4 2 - 10
12.08.2018 19:00:00 29,0 6,0 5 3 - 10
12.08.2018 18:00:00 30,0 7,0 8 4 SW 10
12.08.2018 17:00:00 29,0 7,0 5 3 - 10
12.08.2018 16:00:00 28,0 6,0 11 6 - 10
12.08.2018 15:00:00 28,0 7,0 11 6 - 10
12.08.2018 14:00:00 27,0 6,0 13 7 SW 10
12.08.2018 13:00:00 27,0 7,0 5 3 - 10
12.08.2018 12:00:00 24,0 5,0 8 4 - 10
12.08.2018 11:00:00 23,0 6,0 4 2 - 10
12.08.2018 10:00:00 21,0 9,0 4 2 - 10
12.08.2018 09:00:00 19,0 10,0 2 1 - 10
12.08.2018 08:00:00 17,0 10,0 0 0 N 10
12.08.2018 07:00:00 - - - - - -
12.08.2018 06:00:00 - - - - - -
12.08.2018 05:00:00 - - - - - -
12.08.2018 04:00:00 - - - - - -
12.08.2018 03:00:00 - - - - - -
12.08.2018 02:00:00 - - - - - -
12.08.2018 01:00:00 - - - - - -
12.08.2018 00:00:00 - - - - - -
11.08.2018 23:00:00 - - - - - -
11.08.2018 22:00:00 - - - - - -
11.08.2018 21:00:00 - - - - - -
11.08.2018 20:00:00 - - - - - -
11.08.2018 19:00:00 - - - - - -
11.08.2018 18:00:00 25,0 5,0 16 9 W 10
11.08.2018 17:00:00 25,0 6,0 16 9 W 10
11.08.2018 16:00:00 25,0 5,0 16 9 W 10
11.08.2018 15:00:00 25,0 7,0 15 8 W 10
11.08.2018 14:00:00 24,0 8,0 18 10 W 10
11.08.2018 13:00:00 23,0 8,0 11 6 WNW 10
11.08.2018 12:00:00 22,0 9,0 13 7 WSW 10
11.08.2018 11:00:00 21,0 9,0 15 8 WSW 10
11.08.2018 10:00:00 19,0 9,0 13 7 W 10
11.08.2018 09:00:00 20,0 9,0 9 5 WSW 10
11.08.2018 08:00:00 18,0 8,0 9 5 WSW 10
11.08.2018 07:00:00 - - - - - -
11.08.2018 06:00:00 - - - - - -
11.08.2018 05:00:00 - - - - - -
11.08.2018 04:00:00 - - - - - -
11.08.2018 03:00:00 - - - - - -
11.08.2018 02:00:00 20,0 7,0 5 3 - 10
11.08.2018 01:00:00 - - - - - -

tt = temperature
td = dewpoint
ff = wind speed
dd = wind direction
vv = visibility

Next stations